createdAt,value
2023-04-25T00:00:45.335Z,26.10
2023-04-25T00:01:45.400Z,26.08
2023-04-25T00:02:45.559Z,26.11
2023-04-25T00:03:45.688Z,26.13
2023-04-25T00:04:45.876Z,26.15
2023-04-25T00:05:45.622Z,26.17
2023-04-25T00:06:45.606Z,26.15
2023-04-25T00:07:45.694Z,26.13
2023-04-25T00:08:45.700Z,26.15
2023-04-25T00:09:45.768Z,26.17
2023-04-25T00:10:46.624Z,26.18
2023-04-25T00:11:45.858Z,26.19
2023-04-25T00:12:45.875Z,26.19
2023-04-25T00:13:45.981Z,26.20
2023-04-25T00:14:45.974Z,26.24
2023-04-25T00:15:46.075Z,26.25
2023-04-25T00:16:46.099Z,26.26
2023-04-25T00:17:46.134Z,26.27
2023-04-25T00:18:46.182Z,26.29
2023-04-25T00:19:46.259Z,26.28
2023-04-25T00:20:46.272Z,26.30
2023-04-25T00:21:46.329Z,26.32
2023-04-25T00:22:46.385Z,26.31
2023-04-25T00:23:46.414Z,26.32
2023-04-25T00:24:46.451Z,26.35
2023-04-25T00:25:46.521Z,26.36
2023-04-25T00:26:46.582Z,26.34
2023-04-25T00:27:46.599Z,26.35
2023-04-25T00:28:46.645Z,26.34
2023-04-25T00:29:46.710Z,26.34
2023-04-25T00:30:46.741Z,26.34
2023-04-25T00:31:46.875Z,26.35
2023-04-25T00:32:46.938Z,26.35
2023-04-25T00:33:46.900Z,26.37
2023-04-25T00:34:46.956Z,26.39
2023-04-25T00:35:46.966Z,26.40
2023-04-25T00:36:47.081Z,26.38
2023-04-25T00:37:47.093Z,26.42
2023-04-25T00:38:47.130Z,26.43
2023-04-25T00:39:47.155Z,26.44
2023-04-25T00:40:47.190Z,26.45
2023-04-25T00:41:47.265Z,26.47
2023-04-25T00:42:47.283Z,26.51
2023-04-25T00:43:47.355Z,26.51
2023-04-25T00:44:47.392Z,26.52
2023-04-25T00:45:47.424Z,26.53
2023-04-25T00:46:47.539Z,26.56
2023-04-25T00:47:47.590Z,26.54
2023-04-25T00:48:47.577Z,26.55
2023-04-25T00:49:47.643Z,26.54
2023-04-25T00:50:47.687Z,26.56
2023-04-25T00:51:47.726Z,26.60
2023-04-25T00:52:47.774Z,26.59
2023-04-25T00:53:47.842Z,26.63
2023-04-25T00:54:47.875Z,26.65
2023-04-25T00:55:47.913Z,26.66
2023-04-25T00:56:47.974Z,26.66
2023-04-25T00:57:48.014Z,26.66
2023-04-25T00:58:48.038Z,26.70
2023-04-25T00:59:48.086Z,26.70
2023-04-25T01:00:48.207Z,26.68
2023-04-25T01:01:48.232Z,26.69
2023-04-25T01:02:48.460Z,26.70
2023-04-25T01:03:48.408Z,26.71
2023-04-25T01:04:48.340Z,26.74
2023-04-25T01:05:48.398Z,26.74
2023-04-25T01:06:48.452Z,26.78
2023-04-25T01:07:48.498Z,26.78
2023-04-25T01:08:48.517Z,26.80
2023-04-25T01:09:48.617Z,26.84
2023-04-25T01:10:48.614Z,26.83
2023-04-25T01:11:48.678Z,26.85
2023-04-25T01:12:48.774Z,26.84
2023-04-25T01:13:49.159Z,26.86
2023-04-25T01:14:48.833Z,26.89
2023-04-25T01:15:48.868Z,26.89
2023-04-25T01:16:48.955Z,26.90
2023-04-25T01:17:49.043Z,26.93
2023-04-25T01:18:49.064Z,26.92
2023-04-25T01:19:49.101Z,26.93
2023-04-25T01:20:49.154Z,26.96
2023-04-25T01:21:49.194Z,26.97
2023-04-25T01:22:49.252Z,26.99
2023-04-25T01:23:49.502Z,27.01
2023-04-25T01:24:49.340Z,27.03
2023-04-25T01:25:49.377Z,27.02
2023-04-25T01:26:49.440Z,27.05
2023-04-25T01:27:49.553Z,27.05
2023-04-25T01:28:49.493Z,27.07
2023-04-25T01:29:49.577Z,27.08
2023-04-25T01:30:49.629Z,27.09
2023-04-25T01:31:49.682Z,27.10
2023-04-25T01:32:49.753Z,27.12
2023-04-25T01:33:49.978Z,27.11
2023-04-25T01:34:49.834Z,27.13
2023-04-25T01:35:49.861Z,27.14
2023-04-25T01:36:49.914Z,27.16
2023-04-25T01:37:49.997Z,27.16
2023-04-25T01:38:50.029Z,27.18
2023-04-25T01:39:50.111Z,27.18
2023-04-25T01:40:50.141Z,27.20
2023-04-25T01:41:50.187Z,27.20
2023-04-25T01:42:50.238Z,27.21
2023-04-25T01:43:50.449Z,27.20
2023-04-25T01:44:50.385Z,27.24
2023-04-25T01:45:50.436Z,27.24
2023-04-25T01:46:50.480Z,27.24
2023-04-25T01:47:50.610Z,27.24
2023-04-25T01:48:50.583Z,27.24
2023-04-25T01:49:50.651Z,27.26
2023-04-25T01:50:50.722Z,27.25
2023-04-25T01:51:50.751Z,27.26
2023-04-25T01:52:50.809Z,27.25
2023-04-25T01:53:51.066Z,27.26
2023-04-25T01:54:50.929Z,27.25
2023-04-25T01:55:50.953Z,27.27
2023-04-25T01:56:50.990Z,27.28
2023-04-25T01:57:51.053Z,27.27
2023-04-25T01:58:51.122Z,27.28
2023-04-25T01:59:51.150Z,27.27
2023-04-25T02:00:51.226Z,27.27
2023-04-25T02:01:51.381Z,27.28
2023-04-25T02:02:51.404Z,27.27
2023-04-25T02:03:51.804Z,27.25
2023-04-25T02:04:51.632Z,27.26
2023-04-25T02:05:51.510Z,27.26
2023-04-25T02:06:51.562Z,27.28
2023-04-25T02:07:51.645Z,27.29
2023-04-25T02:08:51.656Z,27.30
2023-04-25T02:09:51.722Z,27.31
2023-04-25T02:10:51.803Z,27.31
2023-04-25T02:11:51.859Z,27.32
2023-04-25T02:12:51.908Z,27.31
2023-04-25T02:13:52.178Z,27.31
2023-04-25T02:14:52.041Z,27.30
2023-04-25T02:15:52.162Z,27.34
2023-04-25T02:16:52.294Z,27.34
2023-04-25T02:17:52.270Z,27.34
2023-04-25T02:18:52.262Z,27.34
2023-04-25T02:19:52.342Z,27.36
2023-04-25T02:20:52.404Z,27.37
2023-04-25T02:21:52.416Z,27.36
2023-04-25T02:22:52.483Z,27.40
2023-04-25T02:23:52.737Z,27.39
2023-04-25T02:24:52.592Z,27.40
2023-04-25T02:25:52.669Z,27.41
2023-04-25T02:26:52.730Z,27.41
2023-04-25T02:27:52.774Z,27.45
2023-04-25T02:28:52.837Z,27.44
2023-04-25T02:29:52.909Z,27.44
2023-04-25T02:30:53.032Z,27.41
2023-04-25T02:31:53.110Z,27.45
2023-04-25T02:32:53.141Z,27.45
2023-04-25T02:33:53.339Z,27.47
2023-04-25T02:34:53.164Z,27.50
2023-04-25T02:35:53.240Z,27.48
2023-04-25T02:36:53.314Z,27.50
2023-04-25T02:37:53.393Z,27.51
2023-04-25T02:38:53.438Z,27.54
2023-04-25T02:39:53.473Z,27.54
2023-04-25T02:40:53.561Z,27.56
2023-04-25T02:41:53.601Z,27.56
2023-04-25T02:42:53.639Z,27.57
2023-04-25T02:43:53.692Z,27.60
2023-04-25T02:44:53.780Z,27.60
2023-04-25T02:45:53.836Z,27.60
2023-04-25T02:46:54.047Z,27.63
2023-04-25T02:47:54.012Z,27.62
2023-04-25T02:48:54.007Z,27.65
2023-04-25T02:49:54.089Z,27.63
2023-04-25T02:50:54.139Z,27.67
2023-04-25T02:51:54.189Z,27.66
2023-04-25T02:52:54.264Z,27.66
2023-04-25T02:53:54.312Z,27.66
2023-04-25T02:54:54.403Z,27.65
2023-04-25T02:55:54.459Z,27.67
2023-04-25T02:56:54.486Z,27.67
2023-04-25T02:57:54.578Z,27.72
2023-04-25T02:58:54.646Z,27.72
2023-04-25T02:59:54.685Z,27.72
2023-04-25T03:00:54.781Z,27.75
2023-04-25T03:01:54.804Z,27.77
2023-04-25T03:02:54.992Z,27.79
2023-04-25T03:03:55.318Z,27.81
2023-04-25T03:04:54.970Z,27.80
2023-04-25T03:05:55.029Z,27.82
2023-04-25T03:06:55.126Z,27.84
2023-04-25T03:07:55.174Z,27.85
2023-04-25T03:08:55.240Z,27.86
2023-04-25T03:09:55.320Z,27.88
2023-04-25T03:10:55.383Z,27.89
2023-04-25T03:11:55.405Z,27.92
2023-04-25T03:12:55.487Z,27.93
2023-04-25T03:13:55.578Z,27.94
2023-04-25T03:14:55.600Z,27.95
2023-04-25T03:15:55.676Z,27.98
2023-04-25T03:16:55.807Z,27.98
2023-04-25T03:17:55.858Z,27.99
2023-04-25T03:18:55.876Z,28.00
2023-04-25T03:19:55.940Z,28.01
2023-04-25T03:20:55.972Z,28.01
2023-04-25T03:21:56.026Z,27.97
2023-04-25T03:22:56.074Z,27.98
2023-04-25T03:23:56.141Z,27.98
2023-04-25T03:24:56.188Z,28.00
2023-04-25T03:25:56.239Z,27.99
2023-04-25T03:26:56.297Z,28.01
2023-04-25T03:27:56.341Z,27.98
2023-04-25T03:28:56.426Z,27.95
2023-04-25T03:29:56.452Z,27.96
2023-04-25T03:30:56.486Z,27.97
2023-04-25T03:31:56.577Z,27.99
2023-04-25T03:32:56.645Z,27.97
2023-04-25T03:33:56.623Z,27.97
2023-04-25T03:34:56.690Z,27.96
2023-04-25T03:35:56.691Z,27.94
2023-04-25T03:36:56.729Z,27.93
2023-04-25T03:37:56.795Z,27.92
2023-04-25T03:38:56.825Z,27.91
2023-04-25T03:39:56.863Z,27.89
2023-04-25T03:40:56.892Z,27.90
2023-04-25T03:41:56.918Z,27.89
2023-04-25T03:42:56.955Z,27.86
2023-04-25T03:43:56.975Z,27.84
2023-04-25T03:44:56.988Z,27.83
2023-04-25T03:45:57.031Z,27.79
2023-04-25T03:46:57.047Z,27.80
2023-04-25T03:47:57.100Z,27.77
2023-04-25T03:48:57.073Z,27.76
2023-04-25T03:49:57.091Z,27.74
2023-04-25T03:50:57.116Z,27.74
2023-04-25T03:51:57.147Z,27.73
2023-04-25T03:52:57.150Z,27.70
2023-04-25T03:53:57.153Z,27.70
2023-04-25T03:54:57.128Z,27.71
2023-04-25T03:55:57.134Z,27.66
2023-04-25T03:56:57.158Z,27.67
2023-04-25T03:57:57.174Z,27.67
2023-04-25T03:58:57.163Z,27.64
2023-04-25T03:59:57.169Z,27.63
2023-04-25T04:00:57.189Z,27.63
2023-04-25T04:01:57.170Z,27.62
2023-04-25T04:02:57.321Z,27.62
2023-04-25T04:03:57.678Z,27.59
2023-04-25T04:04:57.297Z,27.58
2023-04-25T04:05:57.259Z,27.58
2023-04-25T04:06:57.214Z,27.58
2023-04-25T04:07:57.179Z,27.55
2023-04-25T04:08:57.204Z,27.55
2023-04-25T04:09:57.175Z,27.55
2023-04-25T04:10:57.181Z,27.55
2023-04-25T04:11:57.188Z,27.54
2023-04-25T04:12:57.158Z,27.54
2023-04-25T04:13:57.159Z,27.52
2023-04-25T04:14:57.175Z,27.53
2023-04-25T04:15:57.220Z,27.52
2023-04-25T04:16:57.157Z,27.50
2023-04-25T04:17:57.197Z,27.51
2023-04-25T04:18:57.134Z,27.48
2023-04-25T04:19:57.141Z,27.48
2023-04-25T04:20:57.110Z,27.49
2023-04-25T04:21:57.115Z,27.48
2023-04-25T04:22:57.084Z,27.47
2023-04-25T04:23:57.084Z,27.48
2023-04-25T04:24:57.077Z,27.48
2023-04-25T04:25:57.063Z,27.46
2023-04-25T04:26:57.031Z,27.47
2023-04-25T04:27:57.039Z,27.45
2023-04-25T04:28:56.997Z,27.46
2023-04-25T04:29:56.980Z,27.45
2023-04-25T04:30:56.993Z,27.44
2023-04-25T04:31:57.022Z,27.43
2023-04-25T04:32:57.085Z,27.44
2023-04-25T04:33:56.937Z,27.43
2023-04-25T04:34:56.907Z,27.43
2023-04-25T04:35:56.887Z,27.43
2023-04-25T04:36:56.881Z,27.42
2023-04-25T04:37:56.861Z,27.44
2023-04-25T04:38:56.873Z,27.44
2023-04-25T04:39:56.835Z,27.47
2023-04-25T04:40:56.842Z,27.46
2023-04-25T04:41:56.792Z,27.47
2023-04-25T04:42:56.780Z,27.46
2023-04-25T04:43:56.762Z,27.45
2023-04-25T04:44:56.775Z,27.46
2023-04-25T04:45:56.751Z,27.45
2023-04-25T04:46:56.844Z,27.47
2023-04-25T04:47:56.823Z,27.48
2023-04-25T04:48:56.707Z,27.49
2023-04-25T04:49:56.718Z,27.48
2023-04-25T04:50:56.705Z,27.50
2023-04-25T04:51:58.399Z,27.49
2023-04-25T04:52:56.636Z,27.52
2023-04-25T04:53:56.618Z,27.51
2023-04-25T04:54:56.603Z,27.50
2023-04-25T04:55:56.622Z,27.52
2023-04-25T04:56:56.576Z,27.55
2023-04-25T04:57:56.554Z,27.54
2023-04-25T04:58:56.558Z,27.53
2023-04-25T04:59:56.537Z,27.56
2023-04-25T05:01:03.586Z,27.54
2023-04-25T05:01:56.494Z,27.58
2023-04-25T05:02:56.626Z,27.57
2023-04-25T05:03:57.033Z,27.55
2023-04-25T05:04:56.472Z,27.58
2023-04-25T05:05:56.469Z,27.58
2023-04-25T05:06:56.449Z,27.58
2023-04-25T05:07:56.437Z,27.59
2023-04-25T05:08:56.421Z,27.61
2023-04-25T05:09:56.367Z,27.60
2023-04-25T05:10:56.393Z,27.63
2023-04-25T05:11:56.350Z,27.61
2023-04-25T05:12:56.346Z,27.61
2023-04-25T05:13:56.331Z,27.63
2023-04-25T05:14:56.318Z,27.64
2023-04-25T05:15:56.278Z,27.64
2023-04-25T05:16:56.341Z,27.63
2023-04-25T05:17:56.294Z,27.63
2023-04-25T05:18:56.217Z,27.64
2023-04-25T05:19:56.270Z,27.67
2023-04-25T05:20:56.179Z,27.66
2023-04-25T05:21:56.171Z,27.67
2023-04-25T05:22:56.167Z,27.68
2023-04-25T05:23:56.141Z,27.68
2023-04-25T05:24:56.382Z,27.67
2023-04-25T05:25:56.099Z,27.68
2023-04-25T05:26:56.076Z,27.70
2023-04-25T05:27:56.074Z,27.71
2023-04-25T05:28:56.060Z,27.71
2023-04-25T05:29:56.272Z,27.72
2023-04-25T05:30:55.994Z,27.75
2023-04-25T05:31:56.010Z,27.74
2023-04-25T05:32:56.014Z,27.77
2023-04-25T05:33:55.986Z,28.04
2023-04-25T05:34:56.325Z,27.95
2023-04-25T05:35:55.952Z,28.26
2023-04-25T05:36:55.927Z,28.56
2023-04-25T05:37:55.873Z,28.84
2023-04-25T05:38:55.873Z,28.93
2023-04-25T05:39:56.323Z,29.52
2023-04-25T05:40:55.844Z,29.35
2023-04-25T05:41:55.834Z,30.40
2023-04-25T05:42:55.800Z,30.51
2023-04-25T05:43:57.906Z,30.69
2023-04-25T05:44:55.956Z,30.86
2023-04-25T05:46:03.080Z,30.81
2023-04-25T05:46:55.994Z,31.08
2023-04-25T05:47:56.007Z,33.66
2023-04-25T05:48:55.945Z,31.71
2023-04-25T05:49:55.917Z,40.56
2023-04-25T05:50:55.909Z,36.38
2023-04-25T05:51:55.886Z,33.82
2023-04-25T05:52:55.870Z,32.88
2023-04-25T05:53:55.860Z,33.39
2023-04-25T05:54:55.814Z,32.66
2023-04-25T05:55:55.897Z,32.86
2023-04-25T05:56:55.785Z,32.84
2023-04-25T05:57:55.796Z,33.05
2023-04-25T05:58:55.748Z,32.98
2023-04-25T05:59:55.733Z,33.21
2023-04-25T06:00:55.784Z,33.40
2023-04-25T06:01:55.723Z,32.80
2023-04-25T06:02:55.827Z,33.30
2023-04-25T06:03:55.909Z,34.27
2023-04-25T06:04:55.758Z,36.39
2023-04-25T06:05:55.707Z,37.83
2023-04-25T06:06:55.551Z,38.17
2023-04-25T06:07:55.532Z,38.33
2023-04-25T06:08:55.524Z,34.91
2023-04-25T06:09:55.491Z,34.83
2023-04-25T06:10:55.534Z,33.29
2023-04-25T06:11:55.428Z,31.85
2023-04-25T06:12:55.441Z,32.06
2023-04-25T06:13:55.413Z,32.74
2023-04-25T06:14:55.372Z,32.06
2023-04-25T06:15:55.422Z,32.61
2023-04-25T06:16:55.378Z,32.15
2023-04-25T06:17:55.400Z,31.38
2023-04-25T06:18:55.314Z,29.85
2023-04-25T06:19:55.279Z,31.34
2023-04-25T06:20:55.293Z,31.46
2023-04-25T06:21:55.235Z,31.37
2023-04-25T06:22:55.264Z,30.22
2023-04-25T06:23:55.241Z,31.08
2023-04-25T06:24:55.240Z,30.65
2023-04-25T06:25:55.285Z,30.05
2023-04-25T06:26:55.300Z,29.75
2023-04-25T06:27:55.340Z,29.78
2023-04-25T06:28:55.353Z,30.29
2023-04-25T06:29:55.352Z,29.92
2023-04-25T06:30:55.366Z,30.21
2023-04-25T06:31:55.357Z,30.11
2023-04-25T06:32:55.399Z,29.87
2023-04-25T06:33:55.325Z,30.24
2023-04-25T06:34:55.355Z,29.74
2023-04-25T06:35:55.386Z,30.20
2023-04-25T06:36:55.396Z,32.37
2023-04-25T06:37:55.428Z,31.45
2023-04-25T06:38:55.472Z,29.54
2023-04-25T06:39:55.518Z,29.82
2023-04-25T06:40:55.826Z,31.59
2023-04-25T06:41:55.572Z,31.85
2023-04-25T06:42:55.616Z,31.49
2023-04-25T06:43:55.613Z,32.41
2023-04-25T06:44:55.722Z,31.40
2023-04-25T06:45:55.820Z,31.52
2023-04-25T06:46:55.773Z,31.74
2023-04-25T06:47:55.889Z,30.49
2023-04-25T06:48:55.840Z,31.08
2023-04-25T06:49:55.862Z,31.52
2023-04-25T06:50:55.934Z,32.35
2023-04-25T06:51:55.951Z,31.48
2023-04-25T06:52:55.989Z,32.31
2023-04-25T06:53:55.988Z,31.76
2023-04-25T06:54:55.997Z,32.53
2023-04-25T06:55:56.057Z,32.09
2023-04-25T06:56:56.091Z,33.52
2023-04-25T06:57:56.109Z,31.75
2023-04-25T06:58:56.101Z,31.01
2023-04-25T06:59:56.121Z,31.59
2023-04-25T07:00:56.223Z,30.91
2023-04-25T07:01:56.190Z,30.28
2023-04-25T07:02:56.334Z,31.28
2023-04-25T07:03:56.374Z,33.24
2023-04-25T07:04:56.277Z,33.31
2023-04-25T07:05:56.228Z,32.63
2023-04-25T07:06:56.354Z,31.40
2023-04-25T07:07:56.249Z,32.22
2023-04-25T07:08:56.276Z,31.53
2023-04-25T07:09:56.303Z,31.47
2023-04-25T07:10:56.290Z,29.70
2023-04-25T07:11:56.351Z,32.45
2023-04-25T07:12:56.326Z,33.40
2023-04-25T07:13:56.405Z,33.78
2023-04-25T07:14:56.477Z,33.46
2023-04-25T07:15:57.538Z,33.56
2023-04-25T07:16:56.343Z,33.46
2023-04-25T07:17:56.463Z,33.53
2023-04-25T07:18:56.234Z,33.29
2023-04-25T07:19:56.205Z,35.43
2023-04-25T07:20:56.186Z,33.47
2023-04-25T07:21:56.338Z,33.80
2023-04-25T07:22:56.137Z,33.95
2023-04-25T07:23:56.063Z,34.28
2023-04-25T07:24:56.073Z,32.57
2023-04-25T07:25:56.054Z,35.92
2023-04-25T07:26:56.387Z,35.21
2023-04-25T07:27:55.967Z,33.89
2023-04-25T07:28:55.944Z,36.43
2023-04-25T07:29:55.892Z,35.36
2023-04-25T07:30:55.849Z,34.54
2023-04-25T07:31:55.949Z,31.90
2023-04-25T07:32:55.790Z,31.64
2023-04-25T07:33:55.741Z,31.32
2023-04-25T07:34:55.753Z,31.36
2023-04-25T07:35:55.728Z,31.57
2023-04-25T07:36:55.946Z,31.92
2023-04-25T07:37:55.734Z,31.70
2023-04-25T07:38:55.697Z,31.89
2023-04-25T07:39:55.666Z,31.75
2023-04-25T07:40:55.733Z,35.71
2023-04-25T07:41:55.859Z,35.25
2023-04-25T07:42:55.664Z,36.63
2023-04-25T07:43:56.690Z,34.43
2023-04-25T07:44:55.638Z,33.97
2023-04-25T07:45:55.623Z,34.38
2023-04-25T07:46:55.914Z,34.15
2023-04-25T07:47:55.652Z,36.36
2023-04-25T07:48:55.647Z,34.03
2023-04-25T07:49:55.623Z,33.22
2023-04-25T07:50:55.646Z,32.20
2023-04-25T07:51:55.643Z,31.90
2023-04-25T07:52:55.681Z,31.27
2023-04-25T07:53:55.674Z,30.91
2023-04-25T07:54:55.699Z,31.35
2023-04-25T07:55:55.708Z,31.40
2023-04-25T07:56:55.753Z,31.21
2023-04-25T07:57:55.784Z,32.64
2023-04-25T07:58:55.785Z,31.82
2023-04-25T07:59:55.780Z,32.01
2023-04-25T08:00:55.802Z,29.51
2023-04-25T08:01:55.891Z,28.92
2023-04-25T08:02:56.037Z,29.73
2023-04-25T08:03:55.995Z,30.37
2023-04-25T08:04:55.966Z,30.53
2023-04-25T08:05:55.949Z,29.36
2023-04-25T08:06:55.972Z,29.24
2023-04-25T08:07:55.983Z,29.47
2023-04-25T08:08:56.000Z,30.81
2023-04-25T08:09:56.024Z,30.52
2023-04-25T08:10:56.051Z,29.86
2023-04-25T08:11:56.424Z,29.82
2023-04-25T08:12:56.135Z,28.81
2023-04-25T08:13:56.114Z,28.23
2023-04-25T08:14:56.172Z,28.62
2023-04-25T08:15:56.238Z,27.84
2023-04-25T08:16:56.215Z,28.25
2023-04-25T08:17:56.375Z,27.88
2023-04-25T08:18:56.312Z,28.80
2023-04-25T08:19:56.313Z,28.41
2023-04-25T08:20:56.394Z,28.37
2023-04-25T08:21:56.398Z,28.69
2023-04-25T08:22:56.433Z,28.63
2023-04-25T08:23:56.453Z,28.36
2023-04-25T08:24:56.492Z,29.30
2023-04-25T08:25:56.534Z,28.13
2023-04-25T08:26:56.940Z,28.51
2023-04-25T08:27:56.618Z,28.14
2023-04-25T08:28:56.631Z,27.65
2023-04-25T08:29:57.291Z,27.50
2023-04-25T08:30:56.724Z,27.73
2023-04-25T08:31:56.943Z,27.65
2023-04-25T08:32:56.777Z,27.44
2023-04-25T08:33:56.821Z,27.27
2023-04-25T08:34:56.892Z,26.99
2023-04-25T08:35:57.059Z,26.78
2023-04-25T08:36:57.416Z,26.15
2023-04-25T08:37:57.025Z,25.89
2023-04-25T08:38:57.341Z,25.64
2023-04-25T08:39:57.082Z,25.96
2023-04-25T08:40:57.133Z,26.08
2023-04-25T08:41:57.120Z,26.06
2023-04-25T08:42:57.219Z,25.82
2023-04-25T08:43:57.175Z,25.58
2023-04-25T08:44:57.152Z,25.58
2023-04-25T08:45:57.138Z,25.75
2023-04-25T08:46:57.462Z,25.93
2023-04-25T08:47:57.182Z,26.01
2023-04-25T08:48:57.882Z,26.03
2023-04-25T08:49:57.141Z,25.94
2023-04-25T08:50:57.163Z,26.37
2023-04-25T08:51:57.418Z,27.96
2023-04-25T08:52:57.137Z,28.19
2023-04-25T08:53:58.806Z,30.55
2023-04-25T08:54:58.092Z,32.36
2023-04-25T08:55:57.150Z,38.91
2023-04-25T08:56:57.083Z,29.47
2023-04-25T08:57:57.126Z,28.35
2023-04-25T08:58:57.042Z,28.61
2023-04-25T08:59:57.036Z,27.99
2023-04-25T09:00:57.162Z,28.35
2023-04-25T09:01:57.398Z,28.17
2023-04-25T09:02:57.062Z,28.48
2023-04-25T09:03:57.022Z,29.79
2023-04-25T09:04:56.945Z,30.91
2023-04-25T09:05:56.970Z,35.96
2023-04-25T09:06:57.250Z,29.96
2023-04-25T09:07:57.106Z,31.18
2023-04-25T09:08:57.149Z,32.46
2023-04-25T09:09:57.125Z,38.18
2023-04-25T09:10:57.205Z,33.40
2023-04-25T09:11:57.294Z,30.84
2023-04-25T09:12:57.322Z,33.97
2023-04-25T09:13:57.280Z,30.34
2023-04-25T09:14:57.312Z,30.42
2023-04-25T09:15:57.394Z,27.57
2023-04-25T09:16:58.005Z,27.60
2023-04-25T09:17:57.511Z,26.84
2023-04-25T09:18:57.515Z,27.77
2023-04-25T09:19:57.550Z,26.28
2023-04-25T09:21:01.891Z,26.17
2023-04-25T09:21:57.554Z,26.51
2023-04-25T09:22:57.575Z,27.29
2023-04-25T09:23:57.520Z,26.55
2023-04-25T09:24:57.517Z,27.23
2023-04-25T09:25:57.507Z,27.86
2023-04-25T09:26:57.528Z,28.46
2023-04-25T09:27:57.461Z,26.48
2023-04-25T09:28:57.454Z,26.38
2023-04-25T09:29:57.432Z,26.49
2023-04-25T09:30:57.410Z,26.08
2023-04-25T09:31:57.454Z,26.53
2023-04-25T09:32:57.426Z,25.74
2023-04-25T09:33:57.387Z,26.80
2023-04-25T09:34:57.345Z,26.69
2023-04-25T09:35:57.365Z,28.34
2023-04-25T09:36:57.452Z,27.18
2023-04-25T09:37:57.973Z,28.02
2023-04-25T09:38:57.538Z,27.26
2023-04-25T09:39:57.580Z,28.67
2023-04-25T09:40:57.637Z,30.10
2023-04-25T09:41:57.674Z,28.93
2023-04-25T09:42:57.963Z,27.64
2023-04-25T09:43:58.012Z,27.62
2023-04-25T09:44:57.801Z,27.39
2023-04-25T09:45:59.070Z,27.24
2023-04-25T09:46:57.863Z,27.45
2023-04-25T09:47:57.987Z,26.88
2023-04-25T09:48:57.947Z,26.53
2023-04-25T09:49:57.973Z,26.36
2023-04-25T09:50:58.037Z,26.36
2023-04-25T09:51:58.078Z,26.36
2023-04-25T09:52:58.126Z,26.27
2023-04-25T09:53:58.177Z,26.25
2023-04-25T09:54:58.208Z,26.18
2023-04-25T09:55:58.248Z,26.34
2023-04-25T09:56:58.325Z,26.11
2023-04-25T09:57:58.470Z,26.14
2023-04-25T09:58:58.300Z,26.00
2023-04-25T09:59:58.280Z,26.01
2023-04-25T10:00:58.330Z,26.02
2023-04-25T10:01:58.320Z,26.04
2023-04-25T10:02:58.315Z,26.18
2023-04-25T10:03:58.396Z,26.20
2023-04-25T10:04:58.431Z,26.06
2023-04-25T10:05:58.275Z,25.98
2023-04-25T10:06:58.294Z,25.98
2023-04-25T10:07:58.328Z,26.02
2023-04-25T10:08:58.353Z,25.78
2023-04-25T10:09:58.329Z,25.83
2023-04-25T10:10:58.376Z,25.71
2023-04-25T10:11:58.449Z,25.73
2023-04-25T10:12:58.397Z,25.72
2023-04-25T10:13:58.462Z,25.71
2023-04-25T10:14:58.491Z,25.66
2023-04-25T10:15:58.519Z,25.78
2023-04-25T10:16:58.522Z,25.90
2023-04-25T10:17:58.537Z,25.98
2023-04-25T10:18:58.588Z,26.04
2023-04-25T10:19:58.625Z,26.08
2023-04-25T10:20:58.585Z,25.97
2023-04-25T10:21:58.590Z,25.97
2023-04-25T10:22:58.635Z,26.05
2023-04-25T10:23:58.636Z,26.05
2023-04-25T10:24:58.655Z,25.97
2023-04-25T10:25:58.731Z,25.95
2023-04-25T10:26:58.693Z,25.85
2023-04-25T10:27:58.738Z,25.81
2023-04-25T10:28:59.471Z,25.94
2023-04-25T10:29:58.729Z,25.88
2023-04-25T10:30:58.853Z,25.62
2023-04-25T10:31:58.798Z,25.57
2023-04-25T10:32:58.773Z,25.58
2023-04-25T10:33:58.779Z,25.62
2023-04-25T10:34:58.784Z,25.77
2023-04-25T10:35:58.763Z,25.78
2023-04-25T10:36:58.765Z,25.84
2023-04-25T10:37:58.960Z,25.79
2023-04-25T10:38:58.790Z,26.77
2023-04-25T10:39:58.821Z,27.42
2023-04-25T10:40:58.802Z,27.23
2023-04-25T10:41:58.850Z,27.58
2023-04-25T10:42:58.967Z,30.70
2023-04-25T10:43:58.781Z,31.10
2023-04-25T10:44:58.796Z,30.68
2023-04-25T10:45:58.875Z,31.20
2023-04-25T10:46:58.995Z,31.18
2023-04-25T10:47:59.010Z,31.83
2023-04-25T10:48:58.904Z,31.24
2023-04-25T10:49:58.916Z,31.46
2023-04-25T10:50:58.976Z,31.89
2023-04-25T10:51:58.973Z,32.76
2023-04-25T10:52:59.046Z,32.12
2023-04-25T10:53:59.459Z,32.11
2023-04-25T10:54:59.123Z,32.29
2023-04-25T10:55:59.175Z,32.39
2023-04-25T10:56:59.219Z,32.79
2023-04-25T10:57:59.552Z,32.69
2023-04-25T10:58:59.550Z,32.09
2023-04-25T10:59:59.312Z,33.24
2023-04-25T11:00:59.317Z,32.68
2023-04-25T11:01:59.415Z,33.09
2023-04-25T11:02:59.533Z,32.79
2023-04-25T11:03:59.900Z,33.69
2023-04-25T11:04:59.451Z,32.49
2023-04-25T11:05:59.444Z,32.72
2023-04-25T11:08:07.779Z,32.64
2023-04-25T11:09:00.846Z,32.19
2023-04-25T11:09:59.475Z,32.15
2023-04-25T11:10:59.351Z,31.83
2023-04-25T11:11:59.425Z,31.35
2023-04-25T11:12:59.342Z,30.87
2023-04-25T11:13:59.274Z,35.78
2023-04-25T11:14:59.206Z,38.87
2023-04-25T11:16:07.397Z,32.12
2023-04-25T11:18:00.248Z,32.16
2023-04-25T11:18:59.499Z,31.82
2023-04-25T11:19:59.095Z,31.75
2023-04-25T11:20:59.051Z,31.91
2023-04-25T11:21:59.010Z,31.44
2023-04-25T11:22:58.982Z,31.00
2023-04-25T11:23:58.996Z,31.98
2023-04-25T11:24:58.997Z,32.28
2023-04-25T11:25:58.936Z,31.79
2023-04-25T11:26:58.871Z,31.76
2023-04-25T11:27:58.869Z,33.38
2023-04-25T11:28:58.989Z,32.28
2023-04-25T11:29:58.792Z,32.76
2023-04-25T11:30:58.790Z,32.39
2023-04-25T11:31:58.772Z,32.44
2023-04-25T11:32:58.765Z,32.32
2023-04-25T11:33:59.007Z,32.22
2023-04-25T11:34:58.666Z,32.23
2023-04-25T11:35:58.598Z,32.24
2023-04-25T11:36:58.572Z,32.26
2023-04-25T11:37:58.742Z,32.12
2023-04-25T11:38:59.000Z,32.17
2023-04-25T11:39:58.544Z,32.17
2023-04-25T11:40:58.489Z,32.20
2023-04-25T11:41:58.541Z,32.22
2023-04-25T11:42:58.448Z,32.17
2023-04-25T11:43:58.886Z,32.16
2023-04-25T11:44:58.429Z,32.14
2023-04-25T11:45:58.504Z,32.19
2023-04-25T11:46:58.390Z,32.12
2023-04-25T11:47:58.455Z,32.07
2023-04-25T11:48:58.436Z,32.11
2023-04-25T11:49:58.471Z,32.17
2023-04-25T11:50:58.502Z,32.10
2023-04-25T11:51:58.536Z,31.94
2023-04-25T11:52:58.567Z,31.81
2023-04-25T11:53:58.591Z,31.72
2023-04-25T11:54:58.635Z,31.72
2023-04-25T11:55:58.637Z,31.72
2023-04-25T11:56:58.682Z,31.70
2023-04-25T11:57:58.682Z,31.64
2023-04-25T11:58:58.759Z,31.61
2023-04-25T11:59:58.766Z,31.59
2023-04-25T12:00:58.793Z,31.59
2023-04-25T12:01:58.906Z,31.55
2023-04-25T12:02:59.006Z,31.47
2023-04-25T12:03:59.024Z,31.44
2023-04-25T12:05:01.118Z,31.45
2023-04-25T12:06:00.001Z,31.44
2023-04-25T12:06:58.870Z,31.43
2023-04-25T12:07:58.820Z,31.42
2023-04-25T12:08:58.806Z,31.44
2023-04-25T12:09:58.769Z,31.44
2023-04-25T12:10:58.736Z,31.44
2023-04-25T12:11:58.717Z,31.43
2023-04-25T12:12:58.698Z,31.41
2023-04-25T12:13:58.696Z,31.40
2023-04-25T12:14:58.652Z,31.48
2023-04-25T12:15:58.674Z,31.43
2023-04-25T12:16:58.667Z,31.41
2023-04-25T12:17:58.705Z,31.31
2023-04-25T12:18:58.685Z,31.35
2023-04-25T12:19:58.774Z,31.16
2023-04-25T12:20:58.757Z,30.96
2023-04-25T12:21:59.523Z,31.16
2023-04-25T12:22:58.824Z,31.14
2023-04-25T12:23:58.882Z,31.08
2023-04-25T12:24:58.896Z,31.04
2023-04-25T12:25:58.951Z,31.06
2023-04-25T12:26:58.948Z,29.98
2023-04-25T12:27:58.986Z,29.79
2023-04-25T12:28:59.062Z,29.07
2023-04-25T12:29:59.064Z,29.65
2023-04-25T12:30:59.181Z,28.54
2023-04-25T12:31:59.171Z,29.99
2023-04-25T12:32:59.164Z,30.09
2023-04-25T12:33:59.284Z,29.90
2023-04-25T12:34:59.207Z,30.44
2023-04-25T12:35:59.271Z,29.51
2023-04-25T12:36:59.299Z,29.93
2023-04-25T12:37:59.291Z,29.79
2023-04-25T12:38:59.350Z,29.10
2023-04-25T12:39:59.382Z,29.80
2023-04-25T12:40:59.429Z,29.82
2023-04-25T12:41:59.470Z,30.08
2023-04-25T12:42:59.473Z,29.33
2023-04-25T12:43:59.514Z,29.15
2023-04-25T12:44:59.524Z,28.72
2023-04-25T12:45:59.549Z,29.59
2023-04-25T12:46:59.691Z,29.46
2023-04-25T12:48:00.397Z,29.51
2023-04-25T12:49:11.776Z,30.04
2023-04-25T12:50:00.618Z,29.30
2023-04-25T12:50:59.576Z,30.10
2023-04-25T12:51:59.561Z,29.85
2023-04-25T12:52:59.556Z,29.59
2023-04-25T12:53:59.522Z,29.64
2023-04-25T12:54:59.485Z,29.05